createdAt,value
2022-09-28T00:01:09.203Z,1.07
2022-09-28T00:03:36.701Z,0.70
2022-09-28T00:06:08.672Z,1.60
2022-09-28T00:08:36.176Z,1.00
2022-09-28T00:11:03.688Z,1.00
2022-09-28T00:13:31.846Z,1.00
2022-09-28T00:16:06.285Z,0.70
2022-09-28T00:18:33.857Z,0.63
2022-09-28T00:21:14.295Z,0.60
2022-09-28T00:23:59.915Z,0.50
2022-09-28T00:26:27.928Z,0.60
2022-09-28T00:28:55.576Z,0.67
2022-09-28T00:31:23.900Z,0.60
2022-09-28T00:33:52.159Z,0.77
2022-09-28T00:36:19.969Z,0.50
2022-09-28T00:38:47.178Z,0.60
2022-09-28T00:41:15.015Z,0.80
2022-09-28T00:43:42.325Z,0.50
2022-09-28T00:46:16.888Z,0.57
2022-09-28T00:48:51.389Z,0.50
2022-09-28T00:51:19.452Z,0.80
2022-09-28T00:53:46.663Z,0.50
2022-09-28T00:56:17.521Z,0.60
2022-09-28T00:58:49.773Z,0.80
2022-09-28T01:01:17.280Z,0.50
2022-09-28T01:03:48.784Z,0.53
2022-09-28T01:06:19.786Z,0.53
2022-09-28T01:08:48.213Z,0.40
2022-09-28T01:11:15.398Z,0.63
2022-09-28T01:13:42.749Z,0.30
2022-09-28T01:16:22.299Z,0.53
2022-09-28T01:19:16.830Z,0.30
2022-09-28T01:21:56.268Z,0.70
2022-09-28T01:24:48.519Z,0.37
2022-09-28T01:27:36.289Z,0.53
2022-09-28T01:30:08.052Z,0.50
2022-09-28T01:32:58.812Z,0.37
2022-09-28T01:35:39.886Z,0.50
2022-09-28T01:38:28.392Z,0.40
2022-09-28T01:40:55.746Z,0.30
2022-09-28T01:43:28.987Z,0.70
2022-09-28T01:46:17.470Z,0.47
2022-09-28T01:48:52.020Z,0.50
2022-09-28T01:51:32.613Z,0.40
2022-09-28T01:54:02.205Z,0.30
2022-09-28T01:56:32.790Z,0.70
2022-09-28T01:59:12.697Z,0.67
2022-09-28T02:02:05.719Z,0.40
2022-09-28T02:04:43.220Z,0.60
2022-09-28T02:07:15.931Z,0.70
2022-09-28T02:09:47.700Z,0.60
2022-09-28T02:12:38.013Z,0.63
2022-09-28T02:15:22.927Z,0.70
2022-09-28T02:17:50.180Z,0.83
2022-09-28T02:20:17.444Z,0.77
2022-09-28T02:22:49.635Z,0.87
2022-09-28T02:25:30.486Z,0.60
2022-09-28T02:28:01.218Z,0.90
2022-09-28T02:30:32.176Z,0.93
2022-09-28T02:33:28.780Z,0.80
2022-09-28T02:35:55.912Z,1.40
2022-09-28T02:38:23.037Z,1.47
2022-09-28T02:40:58.260Z,1.10
2022-09-28T02:43:27.380Z,1.27
2022-09-28T02:46:18.223Z,1.13
2022-09-28T02:49:20.507Z,1.40
2022-09-28T02:52:17.512Z,1.50
2022-09-28T02:54:56.757Z,1.30
2022-09-28T02:57:53.119Z,1.83
2022-09-28T03:00:24.476Z,1.33
2022-09-28T03:02:51.824Z,1.87
2022-09-28T03:05:20.089Z,1.60
2022-09-28T03:07:57.491Z,1.33
2022-09-28T03:10:43.495Z,1.30
2022-09-28T03:13:11.534Z,1.40
2022-09-28T03:15:38.831Z,1.30
2022-09-28T03:18:06.284Z,1.50
2022-09-28T03:20:34.612Z,1.63
2022-09-28T03:25:49.256Z,1.40
2022-09-28T03:28:16.415Z,1.50
2022-09-28T03:30:43.571Z,1.73
2022-09-28T03:33:10.827Z,1.53
2022-09-28T03:35:38.180Z,2.00
2022-09-28T03:38:05.197Z,1.80
2022-09-28T03:40:32.308Z,1.90
2022-09-28T03:43:01.115Z,1.53
2022-09-28T03:45:28.278Z,2.00
2022-09-28T03:47:55.631Z,2.13
2022-09-28T03:50:22.803Z,2.10
2022-09-28T03:52:49.787Z,2.03
2022-09-28T03:55:17.098Z,2.57
2022-09-28T03:57:44.301Z,2.10
2022-09-28T04:00:11.893Z,2.20
2022-09-28T04:02:38.975Z,2.20
2022-09-28T04:05:06.351Z,1.90
2022-09-28T04:07:33.475Z,1.93
2022-09-28T04:10:00.676Z,1.77
2022-09-28T04:12:27.778Z,1.90
2022-09-28T04:14:54.890Z,2.37
2022-09-28T04:17:22.216Z,2.33
2022-09-28T04:19:49.204Z,2.73
2022-09-28T04:22:16.439Z,3.03
2022-09-28T04:24:43.722Z,2.50
2022-09-28T04:27:29.395Z,2.30
2022-09-28T04:29:56.486Z,2.30
2022-09-28T04:32:23.545Z,3.40
2022-09-28T04:34:51.509Z,3.30
2022-09-28T04:37:18.624Z,3.10
2022-09-28T04:39:48.371Z,2.70
2022-09-28T04:42:16.126Z,2.90
2022-09-28T04:44:43.653Z,3.37
2022-09-28T04:47:10.948Z,2.70
2022-09-28T04:49:38.551Z,3.40
2022-09-28T04:52:06.030Z,2.80
2022-09-28T04:54:33.383Z,2.20
2022-09-28T04:57:00.591Z,2.40
2022-09-28T04:59:27.967Z,2.30
2022-09-28T05:01:55.223Z,2.47
2022-09-28T05:04:25.801Z,1.90
2022-09-28T05:06:53.530Z,2.30
2022-09-28T05:09:20.653Z,2.50
2022-09-28T05:11:50.028Z,2.00
2022-09-28T05:14:17.410Z,2.50
2022-09-28T05:16:45.103Z,2.60
2022-09-28T05:19:12.650Z,2.73
2022-09-28T05:21:40.076Z,2.60
2022-09-28T05:24:07.873Z,3.00
2022-09-28T05:26:35.153Z,2.97
2022-09-28T05:29:02.691Z,2.30
2022-09-28T05:31:30.216Z,2.17
2022-09-28T05:33:57.537Z,2.90
2022-09-28T05:36:27.521Z,3.40
2022-09-28T05:38:54.743Z,2.90
2022-09-28T05:41:21.953Z,3.00
2022-09-28T05:43:49.314Z,2.33
2022-09-28T05:46:16.811Z,3.03
2022-09-28T05:48:44.111Z,3.27
2022-09-28T05:51:11.422Z,5.30
2022-09-28T05:53:38.599Z,5.23
2022-09-28T05:56:05.948Z,4.00
2022-09-28T05:58:33.369Z,4.10
2022-09-28T06:01:00.448Z,2.70
2022-09-28T06:03:27.955Z,3.57
2022-09-28T06:05:55.207Z,4.60
2022-09-28T06:08:22.484Z,2.80
2022-09-28T06:10:49.571Z,2.60
2022-09-28T06:13:16.921Z,2.50
2022-09-28T06:15:46.462Z,2.20
2022-09-28T06:18:15.208Z,4.07
2022-09-28T06:20:42.390Z,4.90
2022-09-28T06:23:10.744Z,4.40
2022-09-28T06:25:38.087Z,4.10
2022-09-28T06:28:06.846Z,7.67
2022-09-28T06:30:34.791Z,7.70
2022-09-28T06:33:02.130Z,6.83
2022-09-28T06:35:30.628Z,6.33
2022-09-28T06:37:58.537Z,20.50
2022-09-28T06:40:26.004Z,8.60
2022-09-28T06:43:03.159Z,7.80
2022-09-28T06:45:30.406Z,5.77
2022-09-28T06:47:59.213Z,7.63
2022-09-28T06:50:42.217Z,3.63
2022-09-28T06:53:10.962Z,3.50
2022-09-28T06:55:41.731Z,1.50
2022-09-28T06:58:11.434Z,2.20
2022-09-28T07:00:39.016Z,3.67
2022-09-28T07:03:07.817Z,1.80
2022-09-28T07:05:37.111Z,1.70
2022-09-28T07:08:04.778Z,1.63
2022-09-28T07:10:32.077Z,1.17
2022-09-28T07:13:06.014Z,15.83
2022-09-28T07:15:33.779Z,2.50
2022-09-28T07:18:03.573Z,5.23
2022-09-28T07:20:32.013Z,8.03
2022-09-28T07:23:13.026Z,3.10
2022-09-28T07:25:48.195Z,3.80
2022-09-28T07:28:15.551Z,3.43
2022-09-28T07:30:44.416Z,3.57
2022-09-28T07:33:12.849Z,2.80
2022-09-28T07:35:41.953Z,1.53
2022-09-28T07:38:09.030Z,2.30
2022-09-28T07:40:55.050Z,2.60
2022-09-28T07:43:22.423Z,3.30
2022-09-28T07:45:50.892Z,3.20
2022-09-28T07:48:18.840Z,4.50
2022-09-28T07:50:53.551Z,4.00
2022-09-28T07:53:21.235Z,4.30
2022-09-28T07:55:55.088Z,6.47
2022-09-28T07:58:22.651Z,8.40
2022-09-28T08:00:49.917Z,4.93
2022-09-28T08:03:17.603Z,5.27
2022-09-28T08:05:44.622Z,5.73
2022-09-28T08:08:11.641Z,4.90
2022-09-28T08:10:38.894Z,4.93
2022-09-28T08:13:08.603Z,5.13
2022-09-28T08:15:37.133Z,6.10
2022-09-28T08:18:04.794Z,4.83
2022-09-28T08:20:51.833Z,4.33
2022-09-28T08:23:20.471Z,2.73
2022-09-28T08:25:51.030Z,6.07
2022-09-28T08:28:18.079Z,6.10
2022-09-28T08:30:45.965Z,4.60
2022-09-28T08:33:21.470Z,2.13
2022-09-28T08:35:48.740Z,2.20
2022-09-28T08:38:15.753Z,2.30
2022-09-28T08:41:05.936Z,3.00
2022-09-28T08:43:54.888Z,4.27
2022-09-28T08:46:26.477Z,2.73
2022-09-28T08:49:23.771Z,3.07
2022-09-28T08:52:08.363Z,4.00
2022-09-28T08:54:49.162Z,2.87
2022-09-28T08:57:21.240Z,5.53
2022-09-28T08:59:54.746Z,6.37
2022-09-28T09:02:29.783Z,3.13
2022-09-28T09:04:57.631Z,4.50
2022-09-28T09:07:49.512Z,4.17
2022-09-28T09:10:49.109Z,2.70
2022-09-28T09:13:53.863Z,2.53
2022-09-28T09:16:39.057Z,3.30
2022-09-28T09:19:36.452Z,3.00
2022-09-28T09:22:13.626Z,2.00
2022-09-28T09:24:51.809Z,2.60
2022-09-28T09:27:18.993Z,3.50
2022-09-28T09:30:03.039Z,2.27
2022-09-28T09:32:40.508Z,1.93
2022-09-28T09:35:17.327Z,2.57
2022-09-28T09:38:00.371Z,2.40
2022-09-28T09:40:30.608Z,2.70
2022-09-28T09:42:57.865Z,2.30
2022-09-28T09:45:50.394Z,2.30
2022-09-28T09:48:25.493Z,3.30
2022-09-28T09:50:57.487Z,2.37
2022-09-28T09:53:24.828Z,1.90
2022-09-28T09:55:57.425Z,2.30
2022-09-28T09:58:36.249Z,1.30
2022-09-28T10:01:14.319Z,1.57
2022-09-28T10:03:42.876Z,1.00
2022-09-28T10:06:34.273Z,1.43
2022-09-28T10:09:04.695Z,1.90
2022-09-28T10:11:37.093Z,1.63
2022-09-28T10:14:04.621Z,2.40
2022-09-28T10:16:33.401Z,2.00
2022-09-28T10:19:00.911Z,2.43
2022-09-28T10:21:27.838Z,2.30
2022-09-28T10:23:59.856Z,2.70
2022-09-28T10:26:34.842Z,2.90
2022-09-28T10:29:04.365Z,3.50
2022-09-28T10:31:37.014Z,3.33
2022-09-28T10:34:06.243Z,3.47
2022-09-28T10:36:38.688Z,3.73
2022-09-28T10:39:06.193Z,3.67
2022-09-28T10:41:33.280Z,3.30
2022-09-28T10:44:08.956Z,3.53
2022-09-28T10:46:36.268Z,6.10
2022-09-28T10:49:06.952Z,4.80
2022-09-28T10:51:43.273Z,3.13
2022-09-28T10:54:17.765Z,3.30
2022-09-28T10:56:44.878Z,3.67
2022-09-28T10:59:30.238Z,3.33
2022-09-28T11:01:59.555Z,2.93
2022-09-28T11:04:28.925Z,2.33
2022-09-28T11:09:34.962Z,2.73
2022-09-28T11:12:03.761Z,2.07
2022-09-28T11:14:42.993Z,2.00
2022-09-28T11:17:32.782Z,2.50
2022-09-28T11:20:28.551Z,1.97
2022-09-28T11:23:00.291Z,2.30
2022-09-28T11:25:31.485Z,2.00
2022-09-28T11:28:00.674Z,2.00
2022-09-28T11:30:27.712Z,2.60
2022-09-28T11:32:57.809Z,2.50
2022-09-28T11:35:33.144Z,1.73
2022-09-28T11:38:31.891Z,1.70
2022-09-28T11:41:23.098Z,2.67
2022-09-28T11:44:10.597Z,1.57
2022-09-28T11:47:05.394Z,2.27
2022-09-28T11:49:49.424Z,1.87
2022-09-28T11:52:21.200Z,1.90
2022-09-28T11:55:20.727Z,1.30
2022-09-28T11:57:50.862Z,1.53
2022-09-28T12:00:20.987Z,1.20
2022-09-28T12:03:15.399Z,1.30
2022-09-28T12:05:52.135Z,1.00
2022-09-28T12:08:27.883Z,1.40
2022-09-28T12:10:57.942Z,1.13
2022-09-28T12:13:27.837Z,0.93
2022-09-28T12:19:13.999Z,0.73
2022-09-28T12:21:57.771Z,0.97
2022-09-28T12:24:37.882Z,1.33
2022-09-28T12:27:10.443Z,1.70
2022-09-28T12:30:10.524Z,1.00
2022-09-28T12:32:53.982Z,1.47
2022-09-28T12:35:28.504Z,1.20
2022-09-28T12:38:27.717Z,1.00
2022-09-28T12:41:11.807Z,1.10
2022-09-28T12:44:17.778Z,1.00
2022-09-28T12:47:09.829Z,0.83
2022-09-28T12:53:03.340Z,1.00
2022-09-28T12:55:38.009Z,0.70
2022-09-28T12:58:41.888Z,0.90
2022-09-28T13:01:27.347Z,1.00
2022-09-28T13:04:12.799Z,1.53
2022-09-28T13:06:52.178Z,1.50
2022-09-28T13:09:25.334Z,1.00
2022-09-28T13:12:19.486Z,0.90
2022-09-28T13:15:29.580Z,1.00
2022-09-28T13:18:14.538Z,1.33
2022-09-28T13:20:57.179Z,0.80
2022-09-28T13:23:43.637Z,1.40
2022-09-28T13:26:22.685Z,0.80
2022-09-28T13:28:51.570Z,0.80
2022-09-28T13:31:20.705Z,1.50
2022-09-28T13:33:47.692Z,0.97
2022-09-28T13:36:30.496Z,1.10
2022-09-28T13:39:01.033Z,0.97
2022-09-28T13:41:30.480Z,1.00
2022-09-28T13:44:03.511Z,0.80
2022-09-28T13:47:29.612Z,0.83
2022-09-28T13:50:21.214Z,1.60
2022-09-28T13:53:21.283Z,3.60
2022-09-28T13:56:18.614Z,1.90
2022-09-28T13:59:02.481Z,1.80
2022-09-28T14:01:40.986Z,1.20
2022-09-28T14:04:21.238Z,0.90
2022-09-28T14:07:15.326Z,1.40
2022-09-28T14:09:49.524Z,3.17
2022-09-28T14:12:36.720Z,1.80
2022-09-28T14:15:24.484Z,0.80
2022-09-28T14:17:55.099Z,0.87
2022-09-28T14:20:23.158Z,0.90
2022-09-28T14:22:53.883Z,0.60
2022-09-28T14:25:25.361Z,0.77
2022-09-28T14:28:07.944Z,1.10
2022-09-28T14:30:43.892Z,0.77
2022-09-28T14:33:23.631Z,1.60
2022-09-28T14:36:07.013Z,1.70
2022-09-28T14:39:10.424Z,1.17
2022-09-28T14:41:39.066Z,1.40
2022-09-28T14:44:08.848Z,1.50
2022-09-28T14:46:38.053Z,1.37
2022-09-28T14:49:17.759Z,1.17
2022-09-28T14:51:47.503Z,2.77
2022-09-28T14:54:19.959Z,2.43
2022-09-28T14:56:49.943Z,1.70
2022-09-28T14:59:31.063Z,1.90
2022-09-28T15:02:06.734Z,2.60
2022-09-28T15:04:36.403Z,1.90
2022-09-28T15:07:03.539Z,1.80
2022-09-28T15:09:34.618Z,0.83
2022-09-28T15:12:17.392Z,1.00
2022-09-28T15:14:48.136Z,1.47
2022-09-28T15:17:19.124Z,0.90
2022-09-28T15:19:53.927Z,1.70
2022-09-28T15:22:21.300Z,0.93
2022-09-28T15:25:01.402Z,0.80
2022-09-28T15:27:36.794Z,2.10
2022-09-28T15:30:17.278Z,4.90
2022-09-28T15:32:44.386Z,1.50
2022-09-28T15:35:20.719Z,1.37
2022-09-28T15:37:52.184Z,1.73
2022-09-28T15:40:29.718Z,2.40
2022-09-28T15:42:59.276Z,3.60
2022-09-28T15:45:30.875Z,2.30
2022-09-28T15:48:20.663Z,2.13
2022-09-28T15:51:17.711Z,1.80
2022-09-28T15:54:03.129Z,1.30
2022-09-28T15:56:30.628Z,1.30
2022-09-28T15:59:13.764Z,1.73
2022-09-28T16:01:41.854Z,1.00
2022-09-28T16:04:50.909Z,1.10
2022-09-28T16:07:39.531Z,1.13
2022-09-28T16:10:33.594Z,1.17
2022-09-28T16:13:20.209Z,1.83
2022-09-28T16:16:17.056Z,11.57
2022-09-28T16:18:57.428Z,6.30
2022-09-28T16:21:45.153Z,3.07
2022-09-28T16:24:31.854Z,4.30
2022-09-28T16:27:06.694Z,1.83
2022-09-28T16:29:39.925Z,1.70
2022-09-28T16:32:52.060Z,1.43
2022-09-28T16:35:32.561Z,1.57
2022-09-28T16:38:14.577Z,1.37
2022-09-28T16:40:50.785Z,3.40
2022-09-28T16:43:23.567Z,5.80
2022-09-28T16:45:50.604Z,9.17
2022-09-28T16:48:19.570Z,8.87
2022-09-28T16:50:46.837Z,8.77
2022-09-28T16:53:48.495Z,13.33
2022-09-28T16:56:16.521Z,4.23
2022-09-28T16:58:44.304Z,2.77
2022-09-28T17:01:18.134Z,2.50
2022-09-28T17:03:48.958Z,2.50
2022-09-28T17:06:17.149Z,2.60
2022-09-28T17:08:44.609Z,1.80
2022-09-28T17:11:20.458Z,1.97
2022-09-28T17:13:50.629Z,2.50
2022-09-28T17:16:37.190Z,2.10
2022-09-28T17:19:30.023Z,2.10
2022-09-28T17:21:57.698Z,2.83
2022-09-28T17:24:24.954Z,3.87
2022-09-28T17:26:52.206Z,2.40
2022-09-28T17:29:19.453Z,4.63
2022-09-28T17:31:47.138Z,2.90
2022-09-28T17:34:16.391Z,2.30
2022-09-28T17:36:44.161Z,1.77
2022-09-28T17:39:15.785Z,1.47
2022-09-28T17:41:43.275Z,1.77
2022-09-28T17:44:10.344Z,2.70
2022-09-28T17:46:39.023Z,2.70
2022-09-28T17:49:06.907Z,2.93
2022-09-28T17:51:35.438Z,2.63
2022-09-28T17:54:02.712Z,4.17
2022-09-28T17:56:32.468Z,11.67
2022-09-28T17:59:00.914Z,10.80
2022-09-28T18:01:34.840Z,8.43
2022-09-28T18:04:03.258Z,14.00
2022-09-28T18:06:32.051Z,5.67
2022-09-28T18:08:59.284Z,4.10
2022-09-28T18:11:26.754Z,3.30
2022-09-28T18:13:53.827Z,3.63
2022-09-28T18:16:23.196Z,4.73
2022-09-28T18:18:50.441Z,3.57
2022-09-28T18:21:17.512Z,3.60
2022-09-28T18:23:44.695Z,3.80
2022-09-28T18:26:12.747Z,3.20
2022-09-28T18:28:40.190Z,3.23
2022-09-28T18:31:11.400Z,4.00
2022-09-28T18:33:38.787Z,7.10
2022-09-28T18:36:06.384Z,10.20
2022-09-28T18:38:36.196Z,9.73
2022-09-28T18:41:10.275Z,4.00
2022-09-28T18:43:37.696Z,3.33
2022-09-28T18:46:09.423Z,2.90
2022-09-28T18:48:37.471Z,4.87
2022-09-28T18:51:08.591Z,4.73
2022-09-28T18:53:36.466Z,7.37
2022-09-28T18:56:12.442Z,2.93
2022-09-28T18:58:40.124Z,2.87
2022-09-28T19:01:30.027Z,4.40
2022-09-28T19:04:01.485Z,2.40
2022-09-28T19:06:28.677Z,2.37
2022-09-28T19:08:55.969Z,3.50
2022-09-28T19:11:23.181Z,3.13
2022-09-28T19:13:50.565Z,3.67
2022-09-28T19:16:21.076Z,4.07
2022-09-28T19:18:48.385Z,4.50
2022-09-28T19:21:15.605Z,3.77
2022-09-28T19:23:46.935Z,5.30
2022-09-28T19:26:21.310Z,4.17
2022-09-28T19:28:48.600Z,3.57
2022-09-28T19:31:16.049Z,3.63
2022-09-28T19:33:45.150Z,3.77
2022-09-28T19:36:13.933Z,5.13
2022-09-28T19:38:41.397Z,4.83
2022-09-28T19:41:39.111Z,5.50
2022-09-28T19:44:25.615Z,6.40
2022-09-28T19:47:10.158Z,5.93
2022-09-28T19:49:38.837Z,6.13
2022-09-28T19:52:17.332Z,7.67
2022-09-28T19:54:57.548Z,7.40
2022-09-28T19:57:26.140Z,5.40
2022-09-28T19:59:55.747Z,4.83
2022-09-28T20:02:25.260Z,5.80
2022-09-28T20:04:52.419Z,4.80
2022-09-28T20:07:19.611Z,3.70
2022-09-28T20:09:46.983Z,3.83
2022-09-28T20:12:14.173Z,4.60
2022-09-28T20:14:41.727Z,4.37
2022-09-28T20:17:09.453Z,5.03
2022-09-28T20:19:36.800Z,4.57
2022-09-28T20:22:03.960Z,5.70
2022-09-28T20:24:31.608Z,6.03
2022-09-28T20:26:59.263Z,5.83
2022-09-28T20:29:26.880Z,4.90
2022-09-28T20:31:54.582Z,5.10
2022-09-28T20:34:21.810Z,4.87
2022-09-28T20:36:49.043Z,5.00
2022-09-28T20:39:16.314Z,5.40
2022-09-28T20:41:43.628Z,4.80
2022-09-28T20:44:10.907Z,4.77
2022-09-28T20:46:38.339Z,5.77
2022-09-28T20:49:05.751Z,5.20
2022-09-28T20:51:33.097Z,5.27
2022-09-28T20:54:00.589Z,5.50
2022-09-28T20:56:29.529Z,6.50
2022-09-28T20:58:57.148Z,6.73
2022-09-28T21:01:25.537Z,5.43
2022-09-28T21:03:54.082Z,11.73
2022-09-28T21:06:22.213Z,9.43
2022-09-28T21:08:49.871Z,6.33
2022-09-28T21:11:18.294Z,4.97
2022-09-28T21:13:45.972Z,4.50
2022-09-28T21:16:14.793Z,4.73
2022-09-28T21:18:42.007Z,4.60
2022-09-28T21:21:11.303Z,4.70
2022-09-28T21:23:38.569Z,5.17
2022-09-28T21:26:10.110Z,4.93
2022-09-28T21:28:37.697Z,5.23
2022-09-28T21:31:09.483Z,4.37
2022-09-28T21:33:36.844Z,4.70
2022-09-28T21:36:05.049Z,3.73
2022-09-28T21:38:32.692Z,4.47
2022-09-28T21:41:00.154Z,4.73
2022-09-28T21:43:28.062Z,4.60
2022-09-28T21:45:55.746Z,4.23
2022-09-28T21:48:23.644Z,4.60
2022-09-28T21:50:57.790Z,4.03
2022-09-28T21:53:25.882Z,4.40
2022-09-28T21:55:53.381Z,4.47
2022-09-28T21:58:23.561Z,4.20
2022-09-28T22:00:55.701Z,4.33
2022-09-28T22:03:25.876Z,4.23
2022-09-28T22:05:53.117Z,4.47
2022-09-28T22:08:20.865Z,4.30
2022-09-28T22:11:00.914Z,4.43
2022-09-28T22:13:29.151Z,5.00
2022-09-28T22:15:57.981Z,4.47
2022-09-28T22:18:26.423Z,4.30
2022-09-28T22:21:07.294Z,5.00
2022-09-28T22:23:34.645Z,4.40
2022-09-28T22:26:04.241Z,4.80
2022-09-28T22:28:31.450Z,4.53
2022-09-28T22:30:58.624Z,4.63
2022-09-28T22:33:26.222Z,5.00
2022-09-28T22:35:53.431Z,5.30
2022-09-28T22:38:21.050Z,4.73
2022-09-28T22:40:49.409Z,4.53
2022-09-28T22:43:16.817Z,4.60
2022-09-28T22:45:44.412Z,4.80
2022-09-28T22:48:11.476Z,4.83
2022-09-28T22:50:39.077Z,5.13
2022-09-28T22:53:06.722Z,4.97
2022-09-28T22:55:34.189Z,5.67
2022-09-28T22:58:02.018Z,6.07
2022-09-28T23:00:29.266Z,4.73
2022-09-28T23:02:56.266Z,5.43
2022-09-28T23:05:23.255Z,5.00
2022-09-28T23:07:50.308Z,5.30
2022-09-28T23:10:17.357Z,5.73
2022-09-28T23:12:44.687Z,5.00
2022-09-28T23:15:11.674Z,6.20
2022-09-28T23:17:38.725Z,6.43
2022-09-28T23:20:06.118Z,5.73
2022-09-28T23:22:33.284Z,5.93
2022-09-28T23:25:00.405Z,6.00
2022-09-28T23:27:27.350Z,6.27
2022-09-28T23:29:54.706Z,6.17
2022-09-28T23:32:21.597Z,6.00
2022-09-28T23:34:48.803Z,6.07
2022-09-28T23:37:15.832Z,7.13
2022-09-28T23:39:43.832Z,6.73
2022-09-28T23:42:10.971Z,6.47
2022-09-28T23:44:38.224Z,7.27
2022-09-28T23:47:05.346Z,5.73
2022-09-28T23:49:32.589Z,5.60
2022-09-28T23:51:59.649Z,5.43
2022-09-28T23:54:26.593Z,5.17
2022-09-28T23:56:53.885Z,5.50
2022-09-28T23:59:20.912Z,5.13
